Аэропорт: Оренбург-Центральный. Оренбург

ICAO: UWOO

METAR:
2018/05/20 19:00
UWOO 201900Z 00000MPS 9999 SCT040CB 16/12 Q1016 R26/CLRD65 NOSIG RMK QFE751/1002
METAR:
2018/05/20 18:24
TAF UWOO 201700Z 2018/2118 25003G08MPS 9999 BKN015 SCT020CB TX29/2110Z TN16/2102Z 
      TEMPO 2018/2118 34007G12MPS 3100 -TSRA BKN015CB